This is the latest recevied weather packets stored in our database for station/object TG9ADI-20. If no packets are shown the sender has not sent any weather packets the latest 10 day(s).
| Time | Temp. | Humidity | Pressure | Rain* | Wind** | Luminosity | Snow |
|---|---|---|---|---|---|---|---|
| 1777904318 | 18.33° C | 10% | - | 0 mm | - | - | - |
| 1777903718 | 18.89° C | 84% | 1016 hPa | 0 mm | - | - | - |
| 1777903117 | 18.89° C | 84% | 1016 hPa | 0 mm | - | - | - |
| 1777902517 | 19.44° C | 77% | 1016 hPa | 0 mm | - | - | - |
| 1777901916 | 17.78° C | 89% | 1016 hPa | 0 mm | - | - | - |
| 1777901315 | 18.89° C | 77% | 1016 hPa | 0 mm | - | - | - |
| 1777900715 | 19.44° C | 77% | 1017 hPa | 0 mm | - | - | - |
| 1777900114 | 16.11° C | 97% | 1017 hPa | 0 mm | - | - | - |
| 1777899513 | 16.67° C | 96% | 1017 hPa | 0 mm | - | - | - |
| 1777898913 | 17.78° C | 94% | 1018 hPa | 0 mm | - | - | - |
| 1777898312 | 15.56° C | 96% | 1017 hPa | 0 mm | - | - | - |
| 1777897712 | 15.56° C | 96% | 1017 hPa | 0 mm | - | - | - |
| 1777897111 | 16.11° C | 95% | 1017 hPa | 0 mm | - | - | - |
| 1777896510 | 16.67° C | 95% | 1017 hPa | 0 mm | - | - | - |
| 1777895910 | 17.22° C | 93% | 1017 hPa | 0 mm | - | - | - |
| 1777895309 | 15° C | 96% | 1017 hPa | 0 mm | - | - | - |
| 1777894708 | 15.56° C | 96% | 1017 hPa | 0 mm | - | - | - |
| 1777894108 | 16.67° C | 92% | 1016 hPa | 0 mm | - | - | - |
| 1777893507 | 17.22° C | 93% | 1016 hPa | 0 mm | - | - | - |
| 1777892906 | 15° C | 96% | 1016 hPa | 0 mm | - | - | - |
| 1777892306 | 15° C | 96% | 1017 hPa | 0 mm | - | - | - |
| 1777891705 | 15.56° C | 95% | 1017 hPa | 0 mm | - | - | - |
| 1777891104 | 16.67° C | 93% | 1017 hPa | 0 mm | - | - | - |
| 1777890504 | 15° C | 10% | - | 0 mm | - | - | - |
| 1777889903 | 16.11° C | 10% | - | 0 mm | - | - | - |
* Rain latest hour (hover to see other rain measurements)
** Current wind speed in m/s (hover to see current wind gust speed)